createdAt,value
2023-05-25T00:01:03.607Z,13.60
2023-05-25T00:06:12.169Z,13.60
2023-05-25T00:11:17.106Z,13.50
2023-05-25T00:16:21.055Z,13.40
2023-05-25T00:21:26.305Z,13.20
2023-05-25T00:26:30.173Z,13.10
2023-05-25T00:31:35.768Z,12.90
2023-05-25T00:36:43.254Z,12.80
2023-05-25T00:41:48.306Z,12.60
2023-05-25T00:46:53.219Z,12.50
2023-05-25T00:51:59.815Z,12.50
2023-05-25T00:57:05.198Z,12.40
2023-05-25T01:02:10.887Z,12.40
2023-05-25T01:07:19.538Z,12.50
2023-05-25T01:12:25.269Z,12.50
2023-05-25T01:17:29.918Z,12.40
2023-05-25T01:22:41.148Z,12.50
2023-05-25T01:27:51.637Z,12.50
2023-05-25T01:32:57.033Z,12.50
2023-05-25T01:38:02.773Z,12.60
2023-05-25T01:43:06.538Z,12.60
2023-05-25T01:48:17.156Z,12.50
2023-05-25T01:53:25.455Z,12.40
2023-05-25T01:58:34.185Z,12.40
2023-05-25T02:03:38.547Z,12.30
2023-05-25T02:08:44.207Z,12.30
2023-05-25T02:13:48.258Z,12.30
2023-05-25T02:18:52.077Z,12.30
2023-05-25T02:23:58.152Z,12.10
2023-05-25T02:29:02.145Z,11.90
2023-05-25T02:34:05.805Z,11.80
2023-05-25T02:39:11.252Z,11.60
2023-05-25T02:44:14.942Z,11.60
2023-05-25T02:49:18.495Z,11.60
2023-05-25T02:54:25.618Z,11.60
2023-05-25T02:59:29.136Z,11.50
2023-05-25T03:04:34.063Z,11.60
2023-05-25T03:09:39.742Z,11.60
2023-05-25T03:14:43.491Z,11.60
2023-05-25T03:19:47.426Z,11.70
2023-05-25T03:24:54.515Z,11.60
2023-05-25T03:29:58.093Z,11.40
2023-05-25T03:35:01.592Z,11.30
2023-05-25T03:40:09.512Z,11.30
2023-05-25T03:45:13.489Z,11.10
2023-05-25T03:50:16.983Z,11.20
2023-05-25T03:55:22.273Z,11.30
2023-05-25T04:00:26.001Z,11.40
2023-05-25T04:05:29.810Z,11.60
2023-05-25T04:10:34.746Z,11.70
2023-05-25T04:15:38.178Z,11.80
2023-05-25T04:20:42.028Z,11.90
2023-05-25T04:25:46.958Z,12.00
2023-05-25T04:30:51.369Z,12.00
2023-05-25T04:35:54.901Z,12.00
2023-05-25T04:41:02.033Z,12.00
2023-05-25T04:46:07.910Z,12.00
2023-05-25T04:51:11.862Z,12.00
2023-05-25T04:56:17.135Z,12.10
2023-05-25T05:01:21.100Z,12.10
2023-05-25T05:06:25.755Z,12.10
2023-05-25T05:11:31.026Z,12.10
2023-05-25T05:16:35.356Z,12.20
2023-05-25T05:21:39.230Z,12.00
2023-05-25T05:26:55.381Z,12.10
2023-05-25T05:32:01.775Z,12.00
2023-05-25T05:37:05.455Z,12.10
2023-05-25T05:42:10.568Z,12.20
2023-05-25T05:47:14.403Z,12.30
2023-05-25T05:52:17.997Z,12.20
2023-05-25T05:57:23.145Z,12.20
2023-05-25T06:02:26.694Z,12.40
2023-05-25T06:07:31.029Z,12.40
2023-05-25T06:12:36.182Z,12.40
2023-05-25T06:17:40.179Z,12.40
2023-05-25T06:22:43.767Z,12.50
2023-05-25T06:27:48.600Z,12.60
2023-05-25T06:32:52.115Z,12.80
2023-05-25T06:37:56.034Z,12.90
2023-05-25T06:43:00.984Z,13.10
2023-05-25T06:48:04.716Z,13.30
2023-05-25T06:53:08.298Z,13.40
2023-05-25T06:58:13.915Z,13.50
2023-05-25T07:03:17.413Z,13.70
2023-05-25T07:08:20.980Z,13.80
2023-05-25T07:13:26.204Z,14.00
2023-05-25T07:18:30.074Z,14.20
2023-05-25T07:23:33.596Z,14.40
2023-05-25T07:28:38.431Z,14.60
2023-05-25T07:33:41.886Z,14.80
2023-05-25T07:38:45.415Z,14.90
2023-05-25T07:43:50.268Z,15.00
2023-05-25T07:48:54.746Z,15.10
2023-05-25T07:53:58.758Z,15.20
2023-05-25T07:59:03.716Z,15.30
2023-05-25T08:04:07.262Z,15.30
2023-05-25T08:09:10.787Z,15.30
2023-05-25T08:14:15.933Z,15.40
2023-05-25T08:19:20.083Z,15.60
2023-05-25T08:24:23.594Z,15.60
2023-05-25T08:29:28.538Z,15.50
2023-05-25T08:34:32.026Z,15.60
2023-05-25T08:39:35.930Z,15.70
2023-05-25T08:44:41.917Z,15.70
2023-05-25T08:49:46.428Z,16.00
2023-05-25T08:54:54.554Z,16.60
2023-05-25T09:00:07.169Z,16.70
2023-05-25T09:05:10.903Z,16.60
2023-05-25T09:10:15.920Z,16.60
2023-05-25T09:15:21.231Z,16.70
2023-05-25T09:20:31.452Z,16.70
2023-05-25T09:25:36.280Z,16.80
2023-05-25T09:30:41.091Z,16.90
2023-05-25T09:35:45.331Z,16.90
2023-05-25T09:40:49.108Z,16.90
2023-05-25T09:45:55.004Z,17.00
2023-05-25T09:50:59.970Z,17.10
2023-05-25T09:56:04.552Z,17.00
2023-05-25T10:01:09.448Z,17.10
2023-05-25T10:06:13.688Z,17.30
2023-05-25T10:11:17.982Z,17.50
2023-05-25T10:16:28.045Z,17.60
2023-05-25T10:21:32.757Z,17.60
2023-05-25T10:26:40.568Z,17.70
2023-05-25T10:31:47.070Z,17.80
2023-05-25T10:36:50.634Z,17.90
2023-05-25T10:41:54.587Z,18.00
2023-05-25T10:47:01.291Z,18.20
2023-05-25T10:52:05.057Z,18.40
2023-05-25T10:57:14.197Z,18.60
2023-05-25T11:02:23.218Z,18.80
2023-05-25T11:07:27.006Z,19.00
2023-05-25T11:12:30.806Z,19.00
2023-05-25T11:18:00.823Z,19.10
2023-05-25T11:23:24.107Z,19.30
2023-05-25T11:28:27.995Z,19.30
2023-05-25T11:33:33.489Z,19.40
2023-05-25T11:38:37.661Z,19.50
2023-05-25T11:43:42.718Z,19.60
2023-05-25T11:48:53.127Z,19.60
2023-05-25T11:53:57.556Z,19.70
2023-05-25T11:59:01.653Z,19.80
2023-05-25T12:04:13.247Z,19.90
2023-05-25T12:09:21.052Z,19.90
2023-05-25T12:14:25.511Z,19.90
2023-05-25T12:19:30.875Z,19.90
2023-05-25T12:24:34.695Z,19.90
2023-05-25T12:29:47.103Z,19.90
2023-05-25T12:34:52.039Z,19.90
2023-05-25T12:39:56.042Z,19.90
2023-05-25T12:45:01.750Z,19.90
2023-05-25T12:50:17.943Z,19.90
2023-05-25T12:55:25.874Z,19.90
2023-05-25T13:00:33.206Z,19.90
2023-05-25T13:05:39.207Z,19.90
2023-05-25T13:10:42.962Z,20.00
2023-05-25T13:15:46.654Z,20.10
2023-05-25T13:20:55.191Z,19.90
2023-05-25T13:26:00.038Z,19.80
2023-05-25T13:31:03.498Z,19.90
2023-05-25T13:36:09.082Z,20.30
2023-05-25T13:41:12.942Z,20.60
2023-05-25T13:46:29.975Z,20.90
2023-05-25T13:51:38.690Z,21.10
2023-05-25T13:56:42.878Z,21.30
2023-05-25T14:01:46.741Z,21.30
2023-05-25T14:06:52.214Z,21.20
2023-05-25T14:11:55.952Z,21.40
2023-05-25T14:17:00.408Z,21.50
2023-05-25T14:27:12.787Z,21.60
2023-05-25T14:32:17.173Z,21.70
2023-05-25T14:37:22.348Z,21.90
2023-05-25T14:42:25.770Z,22.00
2023-05-25T14:47:29.345Z,22.00
2023-05-25T14:52:34.143Z,22.30
2023-05-25T14:57:37.636Z,23.10
2023-05-25T15:02:41.173Z,24.10
2023-05-25T15:07:46.988Z,25.20
2023-05-25T15:12:50.756Z,25.60
2023-05-25T15:17:54.244Z,25.60
2023-05-25T15:22:59.007Z,25.70
2023-05-25T15:28:02.619Z,25.30
2023-05-25T15:33:06.096Z,25.10
2023-05-25T15:38:10.942Z,25.80
2023-05-25T15:43:14.511Z,26.00
2023-05-25T15:48:17.955Z,25.50
2023-05-25T15:53:22.694Z,25.20
2023-05-25T15:58:26.115Z,24.80
2023-05-25T16:03:29.995Z,24.10
2023-05-25T16:08:34.932Z,23.80
2023-05-25T16:13:38.386Z,23.90
2023-05-25T16:18:41.908Z,24.40
2023-05-25T16:23:46.779Z,25.00
2023-05-25T16:28:50.273Z,25.40
2023-05-25T16:33:53.844Z,25.70
2023-05-25T16:38:58.722Z,25.80
2023-05-25T16:44:02.231Z,25.80
2023-05-25T16:49:05.897Z,25.70
2023-05-25T16:54:10.714Z,25.70
2023-05-25T16:59:14.222Z,25.90
2023-05-25T17:04:17.785Z,26.30
2023-05-25T17:09:25.477Z,26.20
2023-05-25T17:14:29.324Z,25.90
2023-05-25T17:19:32.855Z,25.70
2023-05-25T17:24:37.700Z,25.20
2023-05-25T17:29:41.776Z,25.00
2023-05-25T17:34:45.237Z,24.70
2023-05-25T17:39:50.207Z,24.50
2023-05-25T17:44:54.003Z,24.30
2023-05-25T17:49:57.515Z,24.10
2023-05-25T17:55:02.703Z,24.00
2023-05-25T18:00:07.139Z,23.80
2023-05-25T18:05:10.632Z,23.60
2023-05-25T18:10:16.164Z,23.50
2023-05-25T18:15:19.735Z,23.40
2023-05-25T18:20:23.317Z,23.20
2023-05-25T18:25:28.216Z,23.10
2023-05-25T18:30:31.963Z,23.00
2023-05-25T18:35:35.492Z,22.80
2023-05-25T18:40:40.413Z,22.70
2023-05-25T18:45:44.266Z,22.60
2023-05-25T18:50:49.661Z,22.50
2023-05-25T18:55:54.553Z,22.30
2023-05-25T19:00:57.997Z,22.10
2023-05-25T19:06:01.428Z,22.00
2023-05-25T19:11:06.766Z,21.90
2023-05-25T19:16:10.361Z,21.80
2023-05-25T19:21:13.900Z,21.60
2023-05-25T19:26:19.008Z,21.50
2023-05-25T19:31:23.608Z,21.40
2023-05-25T19:36:27.300Z,21.20
2023-05-25T19:41:32.235Z,21.10
2023-05-25T19:46:36.771Z,20.90
2023-05-25T19:51:40.559Z,20.80
2023-05-25T19:56:45.402Z,20.70
2023-05-25T20:01:49.131Z,20.40
2023-05-25T20:06:53.003Z,20.30
2023-05-25T20:11:58.442Z,20.20
2023-05-25T20:17:01.930Z,20.10
2023-05-25T20:22:08.101Z,20.00
2023-05-25T20:27:14.224Z,19.90
2023-05-25T20:32:17.737Z,19.70
2023-05-25T20:37:21.479Z,19.60
2023-05-25T20:42:26.407Z,19.50
2023-05-25T20:47:29.904Z,19.30
2023-05-25T20:52:33.739Z,19.20
2023-05-25T20:57:38.612Z,19.20
2023-05-25T21:02:42.476Z,18.80
2023-05-25T21:07:46.420Z,18.60
2023-05-25T21:12:51.218Z,18.50
2023-05-25T21:17:54.806Z,18.40
2023-05-25T21:22:58.291Z,18.40
2023-05-25T21:28:03.160Z,18.20
2023-05-25T21:33:06.708Z,18.20
2023-05-25T21:38:10.390Z,17.90
2023-05-25T21:43:15.530Z,17.80
2023-05-25T21:48:19.044Z,17.70
2023-05-25T21:53:22.574Z,17.60
2023-05-25T21:58:27.917Z,17.50
2023-05-25T22:03:31.509Z,17.40
2023-05-25T22:08:35.722Z,17.40
2023-05-25T22:13:40.626Z,17.40
2023-05-25T22:18:44.208Z,17.20
2023-05-25T22:23:47.675Z,17.10
2023-05-25T22:28:52.523Z,16.80
2023-05-25T22:33:56.150Z,16.70
2023-05-25T22:38:59.682Z,16.70
2023-05-25T22:44:04.598Z,16.60
2023-05-25T22:49:08.173Z,16.60
2023-05-25T22:54:13.674Z,16.80
2023-05-25T22:59:19.060Z,16.90
2023-05-25T23:04:22.730Z,16.90
2023-05-25T23:09:26.265Z,16.90
2023-05-25T23:14:31.376Z,16.80
2023-05-25T23:19:35.695Z,16.70
2023-05-25T23:24:39.155Z,16.70
2023-05-25T23:29:44.083Z,16.60
2023-05-25T23:34:47.592Z,16.60
2023-05-25T23:39:51.266Z,16.60
2023-05-25T23:44:56.069Z,16.50
2023-05-25T23:49:59.819Z,16.50
2023-05-25T23:55:03.364Z,16.30
